createdAt,value
2018-05-31T00:02:00.949Z,8.10
2018-05-31T00:04:28.487Z,8.47
2018-05-31T00:06:56.105Z,9.60
2018-05-31T00:09:23.653Z,8.97
2018-05-31T00:11:51.370Z,9.90
2018-05-31T00:14:18.908Z,9.73
2018-05-31T00:16:46.444Z,9.57
2018-05-31T00:19:14.020Z,10.60
2018-05-31T00:21:41.569Z,8.63
2018-05-31T00:24:09.504Z,9.10
2018-05-31T00:26:37.024Z,9.20
2018-05-31T00:29:04.574Z,9.17
2018-05-31T00:31:32.141Z,8.30
2018-05-31T00:33:59.681Z,9.20
2018-05-31T00:36:27.381Z,8.70
2018-05-31T00:38:54.924Z,8.57
2018-05-31T00:41:22.479Z,8.03
2018-05-31T00:43:50.048Z,8.20
2018-05-31T00:46:17.580Z,7.13
2018-05-31T00:48:45.304Z,6.50
2018-05-31T00:51:12.824Z,8.13
2018-05-31T00:53:40.364Z,8.20
2018-05-31T00:56:16.951Z,9.20
2018-05-31T00:58:44.490Z,8.00
2018-05-31T01:01:13.007Z,8.20
2018-05-31T01:03:40.541Z,7.07
2018-05-31T01:06:08.097Z,7.83
2018-05-31T01:08:35.664Z,8.20
2018-05-31T01:11:03.204Z,8.10
2018-05-31T01:13:30.933Z,6.80
2018-05-31T01:15:58.484Z,8.00
2018-05-31T01:18:26.029Z,7.90
2018-05-31T01:20:53.597Z,8.30
2018-05-31T01:23:21.906Z,7.73
2018-05-31T01:25:49.660Z,8.70
2018-05-31T01:28:17.188Z,8.60
2018-05-31T01:30:44.737Z,9.10
2018-05-31T01:33:12.292Z,8.20
2018-05-31T01:35:39.826Z,9.80
2018-05-31T01:41:10.480Z,8.90
2018-05-31T01:43:39.543Z,8.60
2018-05-31T01:46:07.725Z,8.77
2018-05-31T01:48:35.267Z,8.80
2018-05-31T01:51:02.812Z,8.40
2018-05-31T01:53:30.381Z,9.20
2018-05-31T01:55:57.952Z,9.00
2018-05-31T01:58:25.508Z,8.90
2018-05-31T02:00:53.039Z,9.30
2018-05-31T02:03:20.601Z,9.80
2018-05-31T02:05:48.150Z,10.10
2018-05-31T02:08:15.725Z,10.13
2018-05-31T02:10:43.332Z,9.33
2018-05-31T02:13:10.864Z,9.27
2018-05-31T02:15:38.437Z,11.17
2018-05-31T02:18:05.981Z,10.13
2018-05-31T02:20:33.557Z,9.20
2018-05-31T02:23:01.084Z,9.97
2018-05-31T02:25:28.627Z,10.53
2018-05-31T02:27:56.193Z,10.07
2018-05-31T02:30:23.725Z,10.30
2018-05-31T02:32:51.309Z,9.90
2018-05-31T02:35:18.856Z,11.40
2018-05-31T02:37:46.395Z,10.00
2018-05-31T02:40:13.964Z,9.20
2018-05-31T02:42:41.503Z,10.80
2018-05-31T02:45:09.077Z,9.37
2018-05-31T02:47:36.611Z,9.73
2018-05-31T02:50:04.155Z,8.93
2018-05-31T02:52:31.750Z,9.60
2018-05-31T02:54:59.477Z,9.27
2018-05-31T02:57:27.041Z,7.47
2018-05-31T02:59:54.581Z,8.57
2018-05-31T03:02:22.125Z,8.47
2018-05-31T03:04:49.689Z,8.20
2018-05-31T03:07:17.250Z,8.57
2018-05-31T03:09:44.929Z,7.60
2018-05-31T03:12:12.478Z,8.70
2018-05-31T03:14:40.012Z,9.37
2018-05-31T03:17:07.573Z,8.87
2018-05-31T03:19:35.106Z,9.03
2018-05-31T03:22:02.840Z,7.90
2018-05-31T03:24:30.372Z,8.40
2018-05-31T03:26:57.915Z,9.23
2018-05-31T03:29:25.473Z,8.60
2018-05-31T03:31:53.013Z,9.43
2018-05-31T03:34:20.597Z,9.90
2018-05-31T03:36:48.127Z,9.47
2018-05-31T03:39:15.661Z,10.10
2018-05-31T03:41:43.246Z,10.10
2018-05-31T03:44:10.789Z,9.77
2018-05-31T03:46:38.836Z,9.53
2018-05-31T03:49:06.365Z,9.80
2018-05-31T03:51:33.909Z,9.37
2018-05-31T03:54:01.474Z,9.80
2018-05-31T03:56:29.024Z,9.73
2018-05-31T03:58:56.841Z,8.83
2018-05-31T04:01:25.484Z,8.40
2018-05-31T04:03:52.988Z,8.33
2018-05-31T04:06:20.585Z,9.10
2018-05-31T04:08:48.125Z,8.30
2018-05-31T04:11:15.699Z,8.93
2018-05-31T04:13:43.236Z,7.83
2018-05-31T04:16:10.772Z,8.90
2018-05-31T04:18:38.335Z,8.07
2018-05-31T04:21:05.883Z,9.23
2018-05-31T04:23:34.200Z,9.63
2018-05-31T04:26:01.731Z,9.50
2018-05-31T04:28:29.308Z,9.30
2018-05-31T04:30:56.942Z,9.00
2018-05-31T04:33:24.469Z,8.50
2018-05-31T04:35:52.392Z,9.60
2018-05-31T04:38:19.934Z,8.10
2018-05-31T04:40:47.471Z,9.47
2018-05-31T04:43:15.033Z,10.27
2018-05-31T04:45:42.568Z,11.00
2018-05-31T04:48:10.276Z,9.03
2018-05-31T04:50:37.808Z,10.30
2018-05-31T04:53:05.332Z,9.57
2018-05-31T04:55:32.893Z,10.30
2018-05-31T04:58:00.434Z,10.30
2018-05-31T05:00:28.176Z,10.67
2018-05-31T05:02:55.721Z,11.37
2018-05-31T05:05:23.260Z,11.23
2018-05-31T05:07:50.825Z,10.70
2018-05-31T05:10:18.368Z,9.60
2018-05-31T05:12:46.386Z,11.10
2018-05-31T05:15:14.470Z,11.03
2018-05-31T05:17:42.011Z,9.50
2018-05-31T05:20:09.572Z,10.77
2018-05-31T05:22:37.159Z,9.90
2018-05-31T05:25:04.761Z,9.47
2018-05-31T05:27:32.292Z,10.53
2018-05-31T05:29:59.828Z,10.20
2018-05-31T05:32:27.433Z,9.80
2018-05-31T05:34:54.932Z,9.40
2018-05-31T05:37:22.896Z,10.47
2018-05-31T05:39:50.427Z,9.23
2018-05-31T05:42:17.972Z,11.00
2018-05-31T05:44:45.546Z,10.37
2018-05-31T05:47:13.155Z,9.20
2018-05-31T05:49:40.896Z,10.30
2018-05-31T05:52:08.432Z,10.40
2018-05-31T05:54:35.963Z,10.63
2018-05-31T05:57:03.520Z,9.90
2018-05-31T05:59:31.053Z,10.30
2018-05-31T06:01:59.943Z,9.70
2018-05-31T06:04:27.477Z,10.57
2018-05-31T06:06:55.008Z,9.70
2018-05-31T06:09:22.585Z,10.90
2018-05-31T06:11:50.121Z,10.70
2018-05-31T06:14:17.685Z,9.97
2018-05-31T06:16:45.252Z,10.70
2018-05-31T06:19:12.978Z,10.03
2018-05-31T06:21:40.546Z,9.30
2018-05-31T06:24:08.101Z,9.03
2018-05-31T06:26:35.673Z,10.50
2018-05-31T06:29:03.209Z,10.17
2018-05-31T06:31:31.269Z,8.53
2018-05-31T06:33:58.820Z,9.10
2018-05-31T06:36:27.296Z,9.03
2018-05-31T06:38:54.856Z,8.70
2018-05-31T06:41:22.378Z,8.57
2018-05-31T06:43:51.041Z,8.03
2018-05-31T06:46:18.608Z,8.93
2018-05-31T06:48:49.117Z,7.70
2018-05-31T06:51:17.165Z,7.37
2018-05-31T06:53:44.996Z,8.67
2018-05-31T06:56:12.513Z,7.33
2018-05-31T06:58:40.157Z,7.77
2018-05-31T07:01:08.230Z,7.93
2018-05-31T07:03:35.918Z,7.10
2018-05-31T07:06:03.436Z,7.23
2018-05-31T07:08:31.070Z,7.40
2018-05-31T07:10:58.615Z,6.87
2018-05-31T07:13:26.142Z,7.33
2018-05-31T07:15:54.136Z,6.00
2018-05-31T07:18:21.639Z,6.83
2018-05-31T07:20:49.840Z,8.07
2018-05-31T07:23:17.380Z,6.10
2018-05-31T07:25:44.896Z,6.93
2018-05-31T07:28:12.452Z,7.60
2018-05-31T07:30:39.965Z,6.20
2018-05-31T07:33:07.484Z,6.87
2018-05-31T07:35:35.026Z,6.73
2018-05-31T07:38:02.537Z,7.33
2018-05-31T07:40:30.281Z,6.13
2018-05-31T07:42:57.797Z,8.00
2018-05-31T07:45:25.325Z,7.73
2018-05-31T07:47:52.872Z,7.40
2018-05-31T07:50:20.385Z,8.03
2018-05-31T07:52:48.186Z,8.73
2018-05-31T07:55:15.704Z,7.37
2018-05-31T07:57:43.224Z,6.80
2018-05-31T08:00:10.774Z,7.77
2018-05-31T08:02:38.419Z,7.13
2018-05-31T08:05:05.992Z,7.10
2018-05-31T08:07:33.517Z,6.57
2018-05-31T08:10:01.029Z,5.43
2018-05-31T08:12:28.568Z,6.53
2018-05-31T08:14:56.384Z,6.97
2018-05-31T08:17:23.929Z,7.20
2018-05-31T08:19:51.844Z,7.30
2018-05-31T08:22:19.529Z,7.60
2018-05-31T08:24:47.054Z,6.40
2018-05-31T08:27:14.609Z,6.40
2018-05-31T08:29:42.128Z,5.17
2018-05-31T08:32:10.126Z,7.20
2018-05-31T08:34:37.665Z,6.33
2018-05-31T08:37:05.184Z,6.30
2018-05-31T08:39:32.744Z,7.40
2018-05-31T08:42:00.288Z,5.77
2018-05-31T08:44:27.956Z,4.53
2018-05-31T08:46:55.488Z,5.60
2018-05-31T08:49:23.373Z,5.63
2018-05-31T08:51:51.041Z,4.30
2018-05-31T08:54:18.561Z,5.97
2018-05-31T08:56:46.572Z,4.10
2018-05-31T08:59:14.089Z,5.03
2018-05-31T09:01:41.632Z,5.20
2018-05-31T09:04:09.186Z,4.73
2018-05-31T09:06:36.758Z,3.80
2018-05-31T09:09:04.677Z,4.43
2018-05-31T09:11:32.202Z,4.20
2018-05-31T09:13:59.817Z,3.23
2018-05-31T09:16:27.402Z,3.83
2018-05-31T09:18:55.103Z,3.20
2018-05-31T09:21:22.671Z,3.23
2018-05-31T09:23:50.194Z,3.80
2018-05-31T09:26:17.819Z,3.20
2018-05-31T09:28:45.376Z,3.10
2018-05-31T09:31:12.949Z,3.73
2018-05-31T09:33:40.781Z,4.00
2018-05-31T09:36:08.309Z,4.03
2018-05-31T09:38:35.840Z,3.80
2018-05-31T09:41:03.491Z,3.93
2018-05-31T09:43:31.022Z,4.30
2018-05-31T09:45:58.686Z,3.43
2018-05-31T09:48:26.265Z,4.27
2018-05-31T09:50:53.857Z,3.47
2018-05-31T09:53:21.401Z,3.40
2018-05-31T09:55:48.914Z,3.60
2018-05-31T09:58:16.870Z,3.83
2018-05-31T10:00:44.349Z,3.33
2018-05-31T10:03:11.873Z,2.50
2018-05-31T10:05:39.425Z,3.13
2018-05-31T10:08:07.144Z,3.10
2018-05-31T10:10:34.747Z,2.47
2018-05-31T10:13:02.264Z,2.50
2018-05-31T10:15:29.798Z,2.93
2018-05-31T10:17:57.366Z,2.83
2018-05-31T10:20:24.896Z,3.40
2018-05-31T10:22:52.697Z,3.20
2018-05-31T10:25:21.289Z,3.00
2018-05-31T10:27:48.829Z,3.10
2018-05-31T10:30:16.373Z,2.42
2018-05-31T10:32:43.889Z,2.33
2018-05-31T10:35:11.618Z,3.58
2018-05-31T10:37:39.291Z,2.75
2018-05-31T10:40:06.828Z,2.70
2018-05-31T10:42:34.397Z,2.47
2018-05-31T10:45:02.175Z,2.70
2018-05-31T10:47:30.698Z,2.45
2018-05-31T10:49:58.253Z,2.62
2018-05-31T10:52:26.027Z,2.65
2018-05-31T10:54:53.593Z,2.42
2018-05-31T10:57:21.116Z,3.00
2018-05-31T10:59:48.862Z,2.62
2018-05-31T11:02:16.569Z,2.92
2018-05-31T11:04:44.122Z,3.08
2018-05-31T11:07:12.272Z,2.67
2018-05-31T11:09:39.845Z,2.63
2018-05-31T11:12:08.278Z,3.37
2018-05-31T11:14:35.875Z,3.50
2018-05-31T11:17:03.619Z,3.05
2018-05-31T11:19:31.177Z,3.25
2018-05-31T11:21:59.052Z,2.60
2018-05-31T11:24:26.628Z,3.05
2018-05-31T11:26:54.334Z,3.47
2018-05-31T11:29:22.035Z,3.47
2018-05-31T11:31:49.796Z,2.83
2018-05-31T11:34:18.495Z,2.85
2018-05-31T11:36:46.656Z,3.30
2018-05-31T11:39:14.524Z,2.60
2018-05-31T11:41:42.335Z,2.50
2018-05-31T11:44:15.188Z,2.60
2018-05-31T11:46:43.072Z,2.78
2018-05-31T11:49:12.347Z,2.72
2018-05-31T11:51:40.164Z,2.80
2018-05-31T11:54:07.969Z,37.72
2018-05-31T11:56:35.841Z,4.75
2018-05-31T11:59:03.803Z,2.90
2018-05-31T12:01:31.776Z,2.53
2018-05-31T12:03:59.405Z,2.72
2018-05-31T12:06:27.203Z,2.85
2018-05-31T12:08:55.067Z,3.15
2018-05-31T12:11:22.680Z,3.15
2018-05-31T12:13:50.348Z,2.67
2018-05-31T12:16:17.902Z,2.03
2018-05-31T12:18:45.703Z,2.45
2018-05-31T12:21:13.341Z,2.20
2018-05-31T12:23:40.874Z,2.35
2018-05-31T12:26:08.763Z,2.15
2018-05-31T12:28:36.301Z,2.40
2018-05-31T12:31:03.840Z,2.50
2018-05-31T12:33:31.683Z,2.00
2018-05-31T12:35:59.446Z,2.42
2018-05-31T12:38:27.278Z,2.55
2018-05-31T12:40:54.874Z,2.42
2018-05-31T12:43:22.745Z,2.40
2018-05-31T12:45:50.271Z,2.60
2018-05-31T12:48:17.839Z,2.77
2018-05-31T12:50:45.609Z,2.80
2018-05-31T12:53:13.188Z,3.43
2018-05-31T12:55:41.545Z,3.23
2018-05-31T12:58:09.065Z,4.03
2018-05-31T13:00:36.591Z,3.10
2018-05-31T13:03:04.137Z,4.67
2018-05-31T13:05:31.773Z,4.30
2018-05-31T13:07:59.664Z,4.43
2018-05-31T13:10:27.229Z,4.20
2018-05-31T13:12:55.091Z,3.80
2018-05-31T13:15:22.854Z,3.90
2018-05-31T13:17:50.894Z,4.10
2018-05-31T13:20:19.429Z,4.20
2018-05-31T13:22:47.069Z,2.97
2018-05-31T13:25:14.866Z,4.63
2018-05-31T13:27:42.565Z,4.20
2018-05-31T13:30:10.361Z,3.90
2018-05-31T13:32:38.330Z,3.93
2018-05-31T13:35:06.199Z,4.27
2018-05-31T13:37:34.165Z,3.17
2018-05-31T13:40:01.937Z,3.70
2018-05-31T13:42:29.758Z,4.10
2018-05-31T13:44:57.457Z,4.43
2018-05-31T13:47:25.222Z,4.47
2018-05-31T13:49:52.864Z,4.43
2018-05-31T13:52:20.428Z,6.20
2018-05-31T13:54:48.070Z,5.07
2018-05-31T13:57:16.279Z,6.60
2018-05-31T13:59:43.865Z,5.23
2018-05-31T14:02:11.448Z,7.20
2018-05-31T14:04:39.371Z,7.40
2018-05-31T14:07:07.137Z,7.50
2018-05-31T14:09:35.389Z,7.10
2018-05-31T14:12:03.279Z,7.10
2018-05-31T14:14:31.037Z,6.83
2018-05-31T14:16:58.905Z,7.60
2018-05-31T14:19:26.566Z,6.47
2018-05-31T14:21:54.661Z,6.33
2018-05-31T14:24:25.328Z,5.37
2018-05-31T14:26:53.150Z,6.40
2018-05-31T14:29:20.796Z,5.40
2018-05-31T14:31:48.767Z,6.00
2018-05-31T14:34:17.280Z,7.07
2018-05-31T14:36:45.069Z,6.00
2018-05-31T14:39:12.984Z,6.70
2018-05-31T14:41:41.360Z,6.13
2018-05-31T14:44:09.226Z,5.90
2018-05-31T14:46:37.290Z,5.53
2018-05-31T14:49:05.166Z,4.77
2018-05-31T14:51:33.176Z,5.73
2018-05-31T14:54:01.106Z,5.60
2018-05-31T14:56:28.969Z,5.80
2018-05-31T14:58:56.938Z,4.50
2018-05-31T15:01:25.417Z,5.00
2018-05-31T15:03:53.286Z,5.60
2018-05-31T15:06:21.152Z,5.60
2018-05-31T15:08:49.018Z,5.90
2018-05-31T15:11:17.703Z,7.90
2018-05-31T15:13:45.268Z,8.03
2018-05-31T15:16:13.035Z,5.70
2018-05-31T15:18:40.926Z,5.40
2018-05-31T15:21:08.589Z,5.27
2018-05-31T15:23:36.437Z,5.37
2018-05-31T15:26:04.163Z,5.30
2018-05-31T15:28:31.746Z,5.27
2018-05-31T15:30:59.511Z,4.77
2018-05-31T15:33:27.268Z,4.60
2018-05-31T15:35:55.038Z,4.00
2018-05-31T15:38:22.804Z,5.03
2018-05-31T15:40:50.699Z,4.17
2018-05-31T15:43:18.541Z,4.30
2018-05-31T15:45:46.406Z,4.87
2018-05-31T15:48:14.781Z,5.07
2018-05-31T15:50:42.333Z,3.93
2018-05-31T15:53:10.207Z,3.90
2018-05-31T15:55:38.080Z,3.67
2018-05-31T15:58:06.722Z,3.50
2018-05-31T16:00:34.691Z,4.00
2018-05-31T16:03:02.800Z,4.20
2018-05-31T16:05:30.665Z,3.87
2018-05-31T16:07:58.594Z,4.80
2018-05-31T16:10:27.526Z,4.10
2018-05-31T16:12:55.601Z,4.43
2018-05-31T16:15:23.563Z,4.20
2018-05-31T16:17:51.535Z,4.30
2018-05-31T16:20:19.402Z,3.87
2018-05-31T16:22:47.164Z,3.73
2018-05-31T16:25:15.117Z,4.37
2018-05-31T16:27:43.103Z,5.23
2018-05-31T16:30:11.277Z,4.03
2018-05-31T16:35:11.926Z,4.20
2018-05-31T16:37:40.278Z,4.67
2018-05-31T16:40:08.282Z,4.47
2018-05-31T16:42:36.140Z,4.00
2018-05-31T16:45:04.892Z,4.50
2018-05-31T16:47:32.797Z,3.97
2018-05-31T16:50:00.959Z,4.40
2018-05-31T16:52:28.847Z,4.17
2018-05-31T16:54:56.389Z,4.23
2018-05-31T16:57:24.160Z,4.27
2018-05-31T16:59:51.821Z,4.23
2018-05-31T17:02:19.856Z,4.60
2018-05-31T17:04:47.446Z,3.90
2018-05-31T17:07:14.977Z,4.00
2018-05-31T17:09:42.982Z,4.20
2018-05-31T17:12:10.556Z,5.10
2018-05-31T17:14:38.273Z,4.27
2018-05-31T17:17:05.863Z,4.60
2018-05-31T17:19:33.574Z,3.90
2018-05-31T17:22:01.271Z,4.13
2018-05-31T17:24:28.789Z,5.17
2018-05-31T17:26:56.613Z,4.63
2018-05-31T17:29:24.148Z,5.20
2018-05-31T17:31:51.789Z,5.13
2018-05-31T17:34:19.349Z,6.67
2018-05-31T17:36:47.029Z,5.07
2018-05-31T17:39:14.921Z,3.97
2018-05-31T17:41:42.442Z,4.93
2018-05-31T17:44:10.135Z,4.87
2018-05-31T17:46:37.804Z,4.97
2018-05-31T17:49:05.471Z,4.73
2018-05-31T17:51:33.056Z,4.03
2018-05-31T17:54:00.581Z,5.50
2018-05-31T17:56:28.092Z,4.40
2018-05-31T17:58:55.780Z,4.60
2018-05-31T18:01:23.431Z,4.70
2018-05-31T18:03:51.044Z,4.40
2018-05-31T18:06:18.570Z,4.87
2018-05-31T18:08:46.750Z,4.30
2018-05-31T18:11:14.353Z,5.37
2018-05-31T18:13:41.882Z,5.07
2018-05-31T18:16:09.449Z,4.87
2018-05-31T18:18:37.025Z,4.47
2018-05-31T18:21:04.554Z,4.73
2018-05-31T18:23:32.115Z,4.83
2018-05-31T18:25:59.655Z,5.83
2018-05-31T18:28:27.644Z,6.50
2018-05-31T18:30:55.613Z,6.33
2018-05-31T18:33:23.587Z,6.00
2018-05-31T18:35:51.512Z,5.03
2018-05-31T18:38:19.184Z,6.57
2018-05-31T18:40:46.790Z,4.93
2018-05-31T18:43:14.348Z,4.93
2018-05-31T18:45:42.918Z,5.63
2018-05-31T18:48:10.778Z,5.13
2018-05-31T18:50:38.446Z,5.07
2018-05-31T18:53:06.207Z,5.87
2018-05-31T18:55:34.036Z,4.67
2018-05-31T18:58:02.653Z,4.93
2018-05-31T19:00:30.470Z,3.97
2018-05-31T19:02:58.289Z,5.27
2018-05-31T19:05:26.149Z,5.20
2018-05-31T19:07:55.051Z,5.43
2018-05-31T19:10:22.913Z,5.40
2018-05-31T19:12:56.411Z,5.07
2018-05-31T19:15:24.224Z,4.87
2018-05-31T19:17:52.147Z,5.13
2018-05-31T19:20:19.909Z,5.33
2018-05-31T19:22:47.569Z,6.03
2018-05-31T19:25:20.357Z,4.93
2018-05-31T19:27:48.118Z,5.23
2018-05-31T19:30:21.423Z,5.83
2018-05-31T19:32:49.646Z,5.80
2018-05-31T19:35:24.004Z,6.70
2018-05-31T19:37:51.876Z,5.50
2018-05-31T19:40:19.839Z,6.33
2018-05-31T19:42:53.442Z,5.73
2018-05-31T19:45:21.511Z,5.50
2018-05-31T19:47:49.452Z,5.40
2018-05-31T19:50:18.171Z,6.00
2018-05-31T19:52:51.662Z,5.50
2018-05-31T19:55:19.531Z,5.80
2018-05-31T19:57:53.183Z,6.20
2018-05-31T20:00:26.435Z,5.80
2018-05-31T20:03:00.748Z,6.30
2018-05-31T20:05:28.712Z,6.47
2018-05-31T20:07:56.579Z,6.90
2018-05-31T20:10:24.455Z,5.57
2018-05-31T20:12:52.320Z,6.73
2018-05-31T20:15:20.139Z,5.33
2018-05-31T20:17:47.938Z,6.20
2018-05-31T20:20:15.605Z,6.40
2018-05-31T20:22:43.576Z,6.53
2018-05-31T20:25:11.338Z,6.00
2018-05-31T20:27:39.513Z,5.93
2018-05-31T20:30:08.144Z,6.23
2018-05-31T20:32:36.001Z,6.17
2018-05-31T20:35:03.932Z,6.10
2018-05-31T20:37:32.515Z,6.13
2018-05-31T20:40:00.586Z,6.47
2018-05-31T20:42:28.630Z,6.97
2018-05-31T20:44:56.630Z,6.20
2018-05-31T20:47:24.491Z,6.33
2018-05-31T20:49:52.257Z,6.97
2018-05-31T20:52:20.600Z,6.50
2018-05-31T20:54:49.322Z,6.73
2018-05-31T20:57:17.161Z,6.50
2018-05-31T20:59:44.850Z,6.20
2018-05-31T21:02:12.617Z,5.93
2018-05-31T21:04:40.790Z,6.43
2018-05-31T21:07:09.269Z,7.17
2018-05-31T21:09:36.836Z,6.23
2018-05-31T21:12:04.810Z,6.67
2018-05-31T21:14:32.668Z,7.40
2018-05-31T21:17:00.733Z,6.73
2018-05-31T21:19:28.444Z,6.37
2018-05-31T21:21:56.263Z,7.10
2018-05-31T21:24:24.232Z,6.70
2018-05-31T21:26:52.098Z,6.50
2018-05-31T21:29:20.212Z,6.13
2018-05-31T21:31:47.907Z,6.93
2018-05-31T21:34:15.597Z,6.90
2018-05-31T21:36:43.347Z,6.57
2018-05-31T21:39:10.893Z,7.20
2018-05-31T21:41:38.573Z,6.43
2018-05-31T21:44:06.117Z,6.83
2018-05-31T21:46:33.701Z,6.10
2018-05-31T21:49:01.670Z,7.63
2018-05-31T21:51:29.387Z,6.43
2018-05-31T21:53:57.248Z,7.67
2018-05-31T21:56:24.793Z,6.87
2018-05-31T21:58:52.336Z,9.70
2018-05-31T22:01:19.943Z,4.10
2018-05-31T22:03:47.643Z,1.90
2018-05-31T22:06:15.384Z,1.50
2018-05-31T22:08:43.151Z,2.40
2018-05-31T22:11:10.672Z,2.00
2018-05-31T22:13:38.594Z,2.27
2018-05-31T22:16:06.158Z,1.90
2018-05-31T22:18:34.228Z,1.40
2018-05-31T22:21:01.823Z,2.73
2018-05-31T22:23:29.446Z,1.80
2018-05-31T22:25:57.015Z,2.10
2018-05-31T22:28:24.597Z,4.10
2018-05-31T22:30:52.804Z,3.10
2018-05-31T22:33:20.622Z,2.20
2018-05-31T22:35:48.135Z,2.60
2018-05-31T22:38:15.821Z,2.10
2018-05-31T22:40:43.341Z,2.33
2018-05-31T22:43:11.359Z,1.83
2018-05-31T22:45:38.877Z,1.97
2018-05-31T22:48:06.528Z,1.87
2018-05-31T22:50:34.082Z,2.00
2018-05-31T22:53:01.624Z,1.33
2018-05-31T22:55:29.445Z,2.13
2018-05-31T22:57:56.973Z,1.90
2018-05-31T23:00:24.492Z,2.20
2018-05-31T23:02:52.065Z,1.97
2018-05-31T23:05:19.569Z,1.90
2018-05-31T23:07:47.113Z,1.40
2018-05-31T23:10:14.640Z,1.67
2018-05-31T23:12:42.157Z,2.07
2018-05-31T23:15:10.244Z,1.47
2018-05-31T23:17:37.770Z,1.60
2018-05-31T23:20:05.324Z,1.57
2018-05-31T23:22:32.843Z,2.00
2018-05-31T23:25:00.357Z,1.60
2018-05-31T23:27:27.896Z,1.83
2018-05-31T23:29:55.424Z,1.87
2018-05-31T23:32:22.982Z,1.50
2018-05-31T23:34:50.507Z,2.40
2018-05-31T23:37:18.032Z,1.80
2018-05-31T23:39:45.583Z,1.47
2018-05-31T23:42:13.101Z,1.50
2018-05-31T23:44:40.685Z,1.53
2018-05-31T23:47:08.213Z,1.40
2018-05-31T23:49:35.774Z,1.70
2018-05-31T23:52:03.313Z,1.73
2018-05-31T23:54:30.838Z,1.20
2018-05-31T23:56:58.532Z,1.83
2018-05-31T23:59:26.057Z,1.47
